createdAt,value
2018-02-03T00:00:45.106Z,6.93
2018-02-03T00:03:13.583Z,7.60
2018-02-03T00:05:41.993Z,7.43
2018-02-03T00:08:09.758Z,8.10
2018-02-03T00:10:37.432Z,7.03
2018-02-03T00:13:05.081Z,7.47
2018-02-03T00:15:32.738Z,6.73
2018-02-03T00:18:00.379Z,7.63
2018-02-03T00:20:28.038Z,7.20
2018-02-03T00:22:56.442Z,7.07
2018-02-03T00:25:24.094Z,6.87
2018-02-03T00:27:51.834Z,6.10
2018-02-03T00:30:20.262Z,6.57
2018-02-03T00:32:47.899Z,5.87
2018-02-03T00:35:15.569Z,5.97
2018-02-03T00:37:43.252Z,5.33
2018-02-03T00:40:10.942Z,5.60
2018-02-03T00:42:39.450Z,5.90
2018-02-03T00:45:07.082Z,5.23
2018-02-03T00:47:35.474Z,5.27
2018-02-03T00:50:03.899Z,6.53
2018-02-03T00:52:31.556Z,6.90
2018-02-03T00:54:59.218Z,6.77
2018-02-03T00:57:26.856Z,6.53
2018-02-03T00:59:54.518Z,7.00
2018-02-03T01:02:22.180Z,7.07
2018-02-03T01:04:49.863Z,6.70
2018-02-03T01:07:17.506Z,7.03
2018-02-03T01:09:45.192Z,6.70
2018-02-03T01:12:13.856Z,7.03
2018-02-03T01:14:41.494Z,6.60
2018-02-03T01:17:09.187Z,6.13
2018-02-03T01:19:37.927Z,7.37
2018-02-03T01:22:06.455Z,6.60
2018-02-03T01:24:34.142Z,6.83
2018-02-03T01:27:01.847Z,6.97
2018-02-03T01:29:29.526Z,7.43
2018-02-03T01:31:57.181Z,8.00
2018-02-03T01:34:26.218Z,7.73
2018-02-03T01:36:53.880Z,7.90
2018-02-03T01:39:21.533Z,8.20
2018-02-03T01:41:49.280Z,8.53
2018-02-03T01:44:16.971Z,8.37
2018-02-03T01:46:44.610Z,8.07
2018-02-03T01:49:12.239Z,8.50
2018-02-03T01:51:39.949Z,8.00
2018-02-03T01:54:07.999Z,7.87
2018-02-03T01:56:35.950Z,7.23
2018-02-03T01:59:04.110Z,7.70
2018-02-03T02:01:31.897Z,8.47
2018-02-03T02:03:59.885Z,7.60
2018-02-03T02:06:27.575Z,7.87
2018-02-03T02:08:56.020Z,8.20
2018-02-03T02:11:23.683Z,7.60
2018-02-03T02:13:51.347Z,7.93
2018-02-03T02:16:19.030Z,7.50
2018-02-03T02:18:47.966Z,7.47
2018-02-03T02:21:16.578Z,7.87
2018-02-03T02:23:47.019Z,6.87
2018-02-03T02:26:14.715Z,7.47
2018-02-03T02:28:42.418Z,7.10
2018-02-03T02:31:10.091Z,7.03
2018-02-03T02:33:37.785Z,6.33
2018-02-03T02:36:05.483Z,6.10
2018-02-03T02:38:33.230Z,6.23
2018-02-03T02:41:00.916Z,6.17
2018-02-03T02:43:28.587Z,6.17
2018-02-03T02:45:56.243Z,6.30
2018-02-03T02:48:24.073Z,6.33
2018-02-03T02:50:51.845Z,7.10
2018-02-03T02:53:19.624Z,7.07
2018-02-03T02:55:47.303Z,6.40
2018-02-03T02:58:15.225Z,5.73
2018-02-03T03:00:43.094Z,5.93
2018-02-03T03:03:10.779Z,6.03
2018-02-03T03:05:38.513Z,6.03
2018-02-03T03:08:06.343Z,6.33
2018-02-03T03:10:34.774Z,6.23
2018-02-03T03:13:02.470Z,6.67
2018-02-03T03:15:30.182Z,6.50
2018-02-03T03:17:58.122Z,6.23
2018-02-03T03:20:26.635Z,6.53
2018-02-03T03:22:54.289Z,6.60
2018-02-03T03:25:21.927Z,7.03
2018-02-03T03:27:50.341Z,6.53
2018-02-03T03:30:19.815Z,6.23
2018-02-03T03:32:48.129Z,5.93
2018-02-03T03:35:15.781Z,5.73
2018-02-03T03:37:43.423Z,5.77
2018-02-03T03:40:11.093Z,5.37
2018-02-03T03:42:38.792Z,5.60
2018-02-03T03:45:06.435Z,5.47
2018-02-03T03:47:34.494Z,5.27
2018-02-03T03:50:02.186Z,5.30
2018-02-03T03:52:29.832Z,5.37
2018-02-03T03:54:58.695Z,4.93
2018-02-03T03:57:26.430Z,5.00
2018-02-03T03:59:54.951Z,5.30
2018-02-03T04:02:23.439Z,5.43
2018-02-03T04:04:51.140Z,5.83
2018-02-03T04:07:19.631Z,5.30
2018-02-03T04:09:48.078Z,5.53
2018-02-03T04:12:15.782Z,5.57
2018-02-03T04:14:44.759Z,5.57
2018-02-03T04:17:12.515Z,5.90
2018-02-03T04:19:40.225Z,6.03
2018-02-03T04:22:07.898Z,5.90
2018-02-03T04:24:35.955Z,6.07
2018-02-03T04:27:04.007Z,5.97
2018-02-03T04:29:31.821Z,6.30
2018-02-03T04:31:59.485Z,6.33
2018-02-03T04:34:27.224Z,6.27
2018-02-03T04:36:54.915Z,6.50
2018-02-03T04:39:23.378Z,7.03
2018-02-03T04:41:51.071Z,6.30
2018-02-03T04:44:18.778Z,7.20
2018-02-03T04:46:46.450Z,6.30
2018-02-03T04:49:14.281Z,6.73
2018-02-03T04:51:41.973Z,6.17
2018-02-03T04:54:09.616Z,7.33
2018-02-03T04:56:38.120Z,7.53
2018-02-03T04:59:07.102Z,7.07
2018-02-03T05:01:34.919Z,6.37
2018-02-03T05:04:03.343Z,7.10
2018-02-03T05:06:32.770Z,7.03
2018-02-03T05:09:00.494Z,7.03
2018-02-03T05:11:28.226Z,7.17
2018-02-03T05:13:55.935Z,7.30
2018-02-03T05:16:23.603Z,7.43
2018-02-03T05:18:51.294Z,7.00
2018-02-03T05:21:20.576Z,7.10
2018-02-03T05:23:48.281Z,6.17
2018-02-03T05:26:15.944Z,7.53
2018-02-03T05:28:43.635Z,7.67
2018-02-03T05:31:11.432Z,6.23
2018-02-03T05:33:39.145Z,7.13
2018-02-03T05:36:06.809Z,6.27
2018-02-03T05:41:08.375Z,6.47
2018-02-03T05:43:43.830Z,6.27
2018-02-03T05:46:11.944Z,5.77
2018-02-03T05:48:40.735Z,6.60
2018-02-03T05:51:09.226Z,6.23
2018-02-03T05:53:37.640Z,6.30
2018-02-03T05:56:05.319Z,6.77
2018-02-03T05:58:33.039Z,5.67
2018-02-03T06:01:01.097Z,5.83
2018-02-03T06:03:29.772Z,6.00
2018-02-03T06:05:58.245Z,6.40
2018-02-03T06:08:26.687Z,5.73
2018-02-03T06:10:54.518Z,5.33
2018-02-03T06:13:22.180Z,5.10
2018-02-03T06:15:50.267Z,5.23
2018-02-03T06:18:18.241Z,5.10
2018-02-03T06:20:47.085Z,5.37
2018-02-03T06:23:15.943Z,4.53
2018-02-03T06:25:43.639Z,4.60
2018-02-03T06:28:12.946Z,4.00
2018-02-03T06:30:40.583Z,4.40
2018-02-03T06:33:09.349Z,3.60
2018-02-03T06:35:37.015Z,3.80
2018-02-03T06:38:07.763Z,3.40
2018-02-03T06:40:36.755Z,3.30
2018-02-03T06:43:04.494Z,3.10
2018-02-03T06:45:32.202Z,2.90
2018-02-03T06:48:00.645Z,3.30
2018-02-03T06:50:28.270Z,3.23
2018-02-03T06:52:55.907Z,2.93
2018-02-03T06:55:23.543Z,3.33
2018-02-03T06:57:52.863Z,4.60
2018-02-03T07:00:20.550Z,5.33
2018-02-03T07:02:48.187Z,5.30
2018-02-03T07:05:16.235Z,6.07
2018-02-03T07:07:45.779Z,6.27
2018-02-03T07:10:13.763Z,6.60
2018-02-03T07:12:41.451Z,5.90
2018-02-03T07:15:09.197Z,6.37
2018-02-03T07:17:36.878Z,6.23
2018-02-03T07:20:04.618Z,6.83
2018-02-03T07:22:32.287Z,6.10
2018-02-03T07:25:00.019Z,6.53
2018-02-03T07:27:27.677Z,6.57
2018-02-03T07:29:55.386Z,7.60
2018-02-03T07:32:23.821Z,7.10
2018-02-03T07:34:51.992Z,7.17
2018-02-03T07:37:19.718Z,6.37
2018-02-03T07:39:49.060Z,6.83
2018-02-03T07:42:17.153Z,6.50
2018-02-03T07:44:45.545Z,6.67
2018-02-03T07:47:13.690Z,6.30
2018-02-03T07:49:41.350Z,6.03
2018-02-03T07:52:09.408Z,6.77
2018-02-03T07:54:37.082Z,6.03
2018-02-03T07:57:05.306Z,6.27
2018-02-03T07:59:32.974Z,7.70
2018-02-03T08:02:00.728Z,6.83
2018-02-03T08:04:29.193Z,7.77
2018-02-03T08:06:57.645Z,7.43
2018-02-03T08:09:25.289Z,7.10
2018-02-03T08:11:53.732Z,8.10
2018-02-03T08:14:21.407Z,7.63
2018-02-03T08:16:49.070Z,7.47
2018-02-03T08:19:16.806Z,7.30
2018-02-03T08:21:45.371Z,7.43
2018-02-03T08:24:13.817Z,7.87
2018-02-03T08:26:41.458Z,8.00
2018-02-03T08:29:09.133Z,7.40
2018-02-03T08:31:36.861Z,6.83
2018-02-03T08:34:07.306Z,6.87
2018-02-03T08:36:35.018Z,6.70
2018-02-03T08:39:04.985Z,7.00
2018-02-03T08:41:32.863Z,6.90
2018-02-03T08:44:01.655Z,6.63
2018-02-03T08:46:29.323Z,6.63
2018-02-03T08:48:57.749Z,7.17
2018-02-03T08:51:25.405Z,6.23
2018-02-03T08:53:54.293Z,6.23
2018-02-03T08:56:23.869Z,6.83
2018-02-03T08:58:51.526Z,6.27
2018-02-03T09:01:19.208Z,6.13
2018-02-03T09:03:49.057Z,6.20
2018-02-03T09:06:16.718Z,5.77
2018-02-03T09:08:44.349Z,5.47
2018-02-03T09:11:12.393Z,5.93
2018-02-03T09:13:41.454Z,6.13
2018-02-03T09:16:09.838Z,6.20
2018-02-03T09:18:37.499Z,5.37
2018-02-03T09:21:05.536Z,5.70
2018-02-03T09:23:33.232Z,6.07
2018-02-03T09:26:00.946Z,5.37
2018-02-03T09:28:28.613Z,4.37
2018-02-03T09:30:56.284Z,4.70
2018-02-03T09:33:23.980Z,5.10
2018-02-03T09:35:51.650Z,5.30
2018-02-03T09:38:19.562Z,5.30
2018-02-03T09:40:47.218Z,4.00
2018-02-03T09:43:16.039Z,3.40
2018-02-03T09:45:43.749Z,4.13
2018-02-03T09:48:11.499Z,4.50
2018-02-03T09:50:39.170Z,4.63
2018-02-03T09:53:07.027Z,4.30
2018-02-03T09:55:34.758Z,5.10
2018-02-03T09:58:02.549Z,4.53
2018-02-03T10:00:30.282Z,4.27
2018-02-03T10:02:58.308Z,4.07
2018-02-03T10:05:26.881Z,4.20
2018-02-03T10:07:55.634Z,4.43
2018-02-03T10:10:23.850Z,4.93
2018-02-03T10:12:52.257Z,4.90
2018-02-03T10:15:19.949Z,4.13
2018-02-03T10:17:47.618Z,4.73
2018-02-03T10:20:15.668Z,4.70
2018-02-03T10:22:44.110Z,4.77
2018-02-03T10:25:12.018Z,4.50
2018-02-03T10:27:39.679Z,4.27
2018-02-03T10:30:07.381Z,4.93
2018-02-03T10:32:35.382Z,5.43
2018-02-03T10:35:03.698Z,5.50
2018-02-03T10:37:31.386Z,4.90
2018-02-03T10:39:59.817Z,5.70
2018-02-03T10:42:27.579Z,5.10
2018-02-03T10:44:55.229Z,5.57
2018-02-03T10:47:23.389Z,5.00
2018-02-03T10:49:51.099Z,4.70
2018-02-03T10:52:18.802Z,5.47
2018-02-03T10:54:46.483Z,4.87
2018-02-03T10:57:14.238Z,6.03
2018-02-03T10:59:41.933Z,5.40
2018-02-03T11:02:09.594Z,5.30
2018-02-03T11:04:37.276Z,5.20
2018-02-03T11:07:05.035Z,5.40
2018-02-03T11:09:32.679Z,5.50
2018-02-03T11:12:00.350Z,5.67
2018-02-03T11:14:28.020Z,6.47
2018-02-03T11:16:56.285Z,5.70
2018-02-03T11:19:24.280Z,6.77
2018-02-03T11:21:52.750Z,5.93
2018-02-03T11:24:20.441Z,6.30
2018-02-03T11:26:48.122Z,6.03
2018-02-03T11:29:15.776Z,6.60
2018-02-03T11:31:43.490Z,6.60
2018-02-03T11:34:11.332Z,6.47
2018-02-03T11:36:39.097Z,7.25
2018-02-03T11:39:07.048Z,6.13
2018-02-03T11:41:34.734Z,6.03
2018-02-03T11:44:02.516Z,5.90
2018-02-03T11:46:31.024Z,6.47
2018-02-03T11:48:58.805Z,6.47
2018-02-03T11:51:27.685Z,5.73
2018-02-03T11:53:55.420Z,6.23
2018-02-03T11:56:23.894Z,6.33
2018-02-03T11:58:52.685Z,6.07
2018-02-03T12:01:21.159Z,6.00
2018-02-03T12:03:48.852Z,6.37
2018-02-03T12:06:16.644Z,5.30
2018-02-03T12:08:44.502Z,5.27
2018-02-03T12:11:12.287Z,5.13
2018-02-03T12:13:40.238Z,5.23
2018-02-03T12:16:07.941Z,5.30
2018-02-03T12:18:36.698Z,4.70
2018-02-03T12:21:06.290Z,5.50
2018-02-03T12:23:34.349Z,5.37
2018-02-03T12:26:02.446Z,5.73
2018-02-03T12:28:30.134Z,6.00
2018-02-03T12:30:58.632Z,6.10
2018-02-03T12:33:26.335Z,6.07
2018-02-03T12:35:54.111Z,5.80
2018-02-03T12:38:21.827Z,6.23
2018-02-03T12:40:49.530Z,5.67
2018-02-03T12:43:17.362Z,5.67
2018-02-03T12:45:45.107Z,6.53
2018-02-03T12:48:12.865Z,6.37
2018-02-03T12:50:40.640Z,5.93
2018-02-03T12:53:08.431Z,5.30
2018-02-03T12:55:36.163Z,6.10
2018-02-03T12:58:04.777Z,6.30
2018-02-03T13:00:32.738Z,6.23
2018-02-03T13:03:00.566Z,6.57
2018-02-03T13:05:28.238Z,6.30
2018-02-03T13:07:55.922Z,6.67
2018-02-03T13:10:24.090Z,6.83
2018-02-03T13:12:52.075Z,6.53
2018-02-03T13:15:19.833Z,6.67
2018-02-03T13:17:48.500Z,5.87
2018-02-03T13:20:16.313Z,6.97
2018-02-03T13:22:44.123Z,7.17
2018-02-03T13:25:11.883Z,7.03
2018-02-03T13:27:39.597Z,6.90
2018-02-03T13:30:07.333Z,6.97
2018-02-03T13:32:35.101Z,7.03
2018-02-03T13:35:02.821Z,6.40
2018-02-03T13:37:30.552Z,7.67
2018-02-03T13:39:58.304Z,7.10
2018-02-03T13:42:26.048Z,6.90
2018-02-03T13:44:53.778Z,6.40
2018-02-03T13:47:21.707Z,6.50
2018-02-03T13:49:50.468Z,6.20
2018-02-03T13:52:18.233Z,6.80
2018-02-03T13:54:45.986Z,6.97
2018-02-03T13:57:13.720Z,7.00
2018-02-03T13:59:41.457Z,7.20
2018-02-03T14:02:09.992Z,6.73
2018-02-03T14:04:37.859Z,6.17
2018-02-03T14:07:05.653Z,6.47
2018-02-03T14:09:33.431Z,6.33
2018-02-03T14:12:01.962Z,7.17
2018-02-03T14:14:29.737Z,6.90
2018-02-03T14:16:57.483Z,7.17
2018-02-03T14:19:25.383Z,6.57
2018-02-03T14:21:53.173Z,6.60
2018-02-03T14:24:27.409Z,6.73
2018-02-03T14:26:56.005Z,6.90
2018-02-03T14:29:23.926Z,6.43
2018-02-03T14:31:52.463Z,6.77
2018-02-03T14:34:20.195Z,6.70
2018-02-03T14:36:47.918Z,6.60
2018-02-03T14:39:15.711Z,7.40
2018-02-03T14:41:43.402Z,6.57
2018-02-03T14:44:11.141Z,6.63
2018-02-03T14:46:38.903Z,6.00
2018-02-03T14:49:06.840Z,6.87
2018-02-03T14:51:34.638Z,6.80
2018-02-03T14:54:02.573Z,6.63
2018-02-03T14:56:31.101Z,6.43
2018-02-03T14:58:58.803Z,5.50
2018-02-03T15:01:26.514Z,5.90
2018-02-03T15:03:54.321Z,5.70
2018-02-03T15:06:22.063Z,5.63
2018-02-03T15:08:49.799Z,5.10
2018-02-03T15:11:17.586Z,5.53
2018-02-03T15:13:45.383Z,5.83
2018-02-03T15:16:14.103Z,5.73
2018-02-03T15:18:41.838Z,4.90
2018-02-03T15:21:10.692Z,5.37
2018-02-03T15:23:38.457Z,4.43
2018-02-03T15:26:06.337Z,4.97
2018-02-03T15:28:34.861Z,4.87
2018-02-03T15:31:02.648Z,4.97
2018-02-03T15:33:30.432Z,4.87
2018-02-03T15:35:58.156Z,4.80
2018-02-03T15:38:26.002Z,5.00
2018-02-03T15:40:54.500Z,4.30
2018-02-03T15:43:22.256Z,4.30
2018-02-03T15:45:50.746Z,4.23
2018-02-03T15:48:18.787Z,4.50
2018-02-03T15:50:47.468Z,3.80
2018-02-03T15:53:15.187Z,4.03
2018-02-03T15:55:42.924Z,4.17
2018-02-03T15:58:10.662Z,3.87
2018-02-03T16:00:39.221Z,3.70
2018-02-03T16:03:07.027Z,3.83
2018-02-03T16:05:34.745Z,3.50
2018-02-03T16:08:02.438Z,3.83
2018-02-03T16:10:30.926Z,3.20
2018-02-03T16:12:58.640Z,3.40
2018-02-03T16:15:26.378Z,3.17
2018-02-03T16:17:54.365Z,3.47
2018-02-03T16:20:22.086Z,3.27
2018-02-03T16:22:49.806Z,3.20
2018-02-03T16:25:17.496Z,3.10
2018-02-03T16:27:46.039Z,3.17
2018-02-03T16:30:13.765Z,3.40
2018-02-03T16:32:41.506Z,3.17
2018-02-03T16:35:09.526Z,3.30
2018-02-03T16:37:37.257Z,3.43
2018-02-03T16:40:04.934Z,3.63
2018-02-03T16:45:07.178Z,3.40
2018-02-03T16:47:35.752Z,3.10
2018-02-03T16:50:04.250Z,3.57
2018-02-03T16:52:32.004Z,2.90
2018-02-03T16:54:59.773Z,3.17
2018-02-03T16:57:27.491Z,3.20
2018-02-03T16:59:55.268Z,3.33
2018-02-03T17:02:22.980Z,3.00
2018-02-03T17:04:50.754Z,3.20
2018-02-03T17:07:18.458Z,3.00
2018-02-03T17:09:46.176Z,2.90
2018-02-03T17:12:13.924Z,2.90
2018-02-03T17:14:41.669Z,3.33
2018-02-03T17:17:10.196Z,3.20
2018-02-03T17:19:37.940Z,3.00
2018-02-03T17:22:05.664Z,3.23
2018-02-03T17:24:34.156Z,3.50
2018-02-03T17:27:01.897Z,3.53
2018-02-03T17:29:30.458Z,3.67
2018-02-03T17:31:58.953Z,3.80
2018-02-03T17:34:26.662Z,2.90
2018-02-03T17:37:00.036Z,3.00
2018-02-03T17:39:27.840Z,2.93
2018-02-03T17:41:56.878Z,3.40
2018-02-03T17:44:25.418Z,3.80
2018-02-03T17:46:58.855Z,4.27
2018-02-03T17:49:27.352Z,3.70
2018-02-03T17:51:55.135Z,4.13
2018-02-03T17:54:22.903Z,4.70
2018-02-03T17:56:56.364Z,4.37
2018-02-03T17:59:24.904Z,4.40
2018-02-03T18:01:52.660Z,4.23
2018-02-03T18:04:20.371Z,4.17
2018-02-03T18:06:54.492Z,3.97
2018-02-03T18:09:22.237Z,3.63
2018-02-03T18:11:50.737Z,3.90
2018-02-03T18:14:18.445Z,3.60
2018-02-03T18:16:46.179Z,3.70
2018-02-03T18:19:13.918Z,3.33
2018-02-03T18:21:41.772Z,3.70
2018-02-03T18:24:10.251Z,3.73
2018-02-03T18:26:38.757Z,4.60
2018-02-03T18:29:06.487Z,5.03
2018-02-03T18:31:34.958Z,5.50
2018-02-03T18:34:02.693Z,4.63
2018-02-03T18:36:30.413Z,4.70
2018-02-03T18:38:58.936Z,4.03
2018-02-03T18:41:26.597Z,4.77
2018-02-03T18:43:54.345Z,5.60
2018-02-03T18:46:22.142Z,5.67
2018-02-03T18:48:49.895Z,4.90
2018-02-03T18:51:17.619Z,5.10
2018-02-03T18:53:45.317Z,5.40
2018-02-03T18:56:13.089Z,5.10
2018-02-03T18:58:41.686Z,4.70
2018-02-03T19:01:10.154Z,5.13
2018-02-03T19:03:37.866Z,4.60
2018-02-03T19:06:05.536Z,4.90
2018-02-03T19:08:33.318Z,5.13
2018-02-03T19:11:01.818Z,4.67
2018-02-03T19:13:29.548Z,4.50
2018-02-03T19:15:57.221Z,5.30
2018-02-03T19:18:24.890Z,5.23
2018-02-03T19:20:52.769Z,5.03
2018-02-03T19:23:20.448Z,4.93
2018-02-03T19:25:48.910Z,5.57
2018-02-03T19:28:16.607Z,5.40
2018-02-03T19:30:45.141Z,5.57
2018-02-03T19:33:12.836Z,5.83
2018-02-03T19:35:41.281Z,6.00
2018-02-03T19:38:09.011Z,5.93
2018-02-03T19:40:36.693Z,6.83
2018-02-03T19:43:04.355Z,7.37
2018-02-03T19:45:32.025Z,7.27
2018-02-03T19:47:59.765Z,7.70
2018-02-03T19:50:28.271Z,7.50
2018-02-03T19:52:55.922Z,7.03
2018-02-03T19:55:23.627Z,7.43
2018-02-03T19:57:52.109Z,6.70
2018-02-03T20:00:20.542Z,7.00
2018-02-03T20:02:48.303Z,6.83
2018-02-03T20:05:15.996Z,6.37
2018-02-03T20:07:43.686Z,7.10
2018-02-03T20:10:11.483Z,6.40
2018-02-03T20:12:39.159Z,6.53
2018-02-03T20:15:06.833Z,6.70
2018-02-03T20:17:34.558Z,7.50
2018-02-03T20:20:02.269Z,7.20
2018-02-03T20:22:29.963Z,6.63
2018-02-03T20:24:58.450Z,6.27
2018-02-03T20:27:26.141Z,6.40
2018-02-03T20:29:53.800Z,6.87
2018-02-03T20:32:21.524Z,6.90
2018-02-03T20:34:49.282Z,6.43
2018-02-03T20:37:17.034Z,6.03
2018-02-03T20:39:45.557Z,6.20
2018-02-03T20:42:13.342Z,6.07
2018-02-03T20:44:41.194Z,6.00
2018-02-03T20:47:09.038Z,5.57
2018-02-03T20:49:37.589Z,5.40
2018-02-03T20:52:06.099Z,5.07
2018-02-03T20:54:35.042Z,5.23
2018-02-03T20:57:02.936Z,4.40
2018-02-03T20:59:30.717Z,4.20
2018-02-03T21:01:59.016Z,4.13
2018-02-03T21:04:26.766Z,4.10
2018-02-03T21:06:54.644Z,3.90
2018-02-03T21:09:22.438Z,4.20
2018-02-03T21:11:50.987Z,4.30
2018-02-03T21:14:18.734Z,4.20
2018-02-03T21:16:46.500Z,4.90
2018-02-03T21:19:14.256Z,5.07
2018-02-03T21:21:41.977Z,4.30
2018-02-03T21:24:10.486Z,5.13
2018-02-03T21:26:38.236Z,5.03
2018-02-03T21:29:05.992Z,4.83
2018-02-03T21:31:34.517Z,5.23
2018-02-03T21:34:02.291Z,5.00
2018-02-03T21:36:29.998Z,5.13
2018-02-03T21:38:58.580Z,5.17
2018-02-03T21:41:27.044Z,4.87
2018-02-03T21:43:54.702Z,5.23
2018-02-03T21:46:22.387Z,5.07
2018-02-03T21:48:50.841Z,5.30
2018-02-03T21:51:18.498Z,5.90
2018-02-03T21:53:46.144Z,5.80
2018-02-03T21:56:13.770Z,5.97
2018-02-03T21:58:41.432Z,5.97
2018-02-03T22:01:09.128Z,6.47
2018-02-03T22:06:28.928Z,6.23
2018-02-03T22:08:58.401Z,6.60
2018-02-03T22:11:27.889Z,5.83
2018-02-03T22:13:57.437Z,6.93
2018-02-03T22:16:27.321Z,6.50
2018-02-03T22:18:56.147Z,6.40
2018-02-03T22:21:25.128Z,6.83
2018-02-03T22:23:54.960Z,7.03
2018-02-03T22:26:23.642Z,7.20
2018-02-03T22:28:53.336Z,6.30
2018-02-03T22:31:23.041Z,6.97
2018-02-03T22:33:51.874Z,6.80
2018-02-03T22:36:21.385Z,6.17
2018-02-03T22:38:50.936Z,5.73
2018-02-03T22:41:19.531Z,6.63
2018-02-03T22:43:48.922Z,6.23
2018-02-03T22:46:18.323Z,5.83
2018-02-03T22:48:47.771Z,6.57
2018-02-03T22:51:16.265Z,6.53
2018-02-03T22:53:46.119Z,6.60
2018-02-03T22:56:14.810Z,6.13
2018-02-03T22:58:43.572Z,5.83
2018-02-03T23:01:17.863Z,5.90
2018-02-03T23:03:46.689Z,6.43
2018-02-03T23:06:15.178Z,5.70
2018-02-03T23:08:43.895Z,5.50
2018-02-03T23:11:13.200Z,5.90
2018-02-03T23:13:42.691Z,5.47
2018-02-03T23:16:12.202Z,5.43
2018-02-03T23:18:40.794Z,5.17
2018-02-03T23:21:09.427Z,5.07
2018-02-03T23:23:37.975Z,5.00
2018-02-03T23:26:07.461Z,5.60
2018-02-03T23:28:36.916Z,4.33
2018-02-03T23:31:06.142Z,4.70
2018-02-03T23:33:34.595Z,4.90
2018-02-03T23:36:02.984Z,4.67
2018-02-03T23:38:31.306Z,4.87
2018-02-03T23:40:59.595Z,5.13
2018-02-03T23:43:27.953Z,4.57
2018-02-03T23:45:56.280Z,4.63
2018-02-03T23:48:24.559Z,4.60
2018-02-03T23:50:52.556Z,4.17
2018-02-03T23:53:20.645Z,4.20
2018-02-03T23:55:48.568Z,5.03
2018-02-03T23:58:16.473Z,4.53
